Time;durP1;ratioP1;P1;durP2;ratioP2;P2;SDS_P1;SDS_P2;PMS_P1;PMS_P2;Temp;Humidity;BMP_temperature;BMP_pressure;BME280_temperature;BME280_humidity;BME280_pressure;Samples;Min_cycle;Max_cycle;Signal;HPM_P1;HPM_P2
2022/08/11 00:00:21;;;;;;;0.00;0.00;;;;;;;;;;5074475;28;20206;-72
2022/08/11 00:02:51;;;;;;;0.00;0.00;;;;;;;;;;5096679;28;20392;-72
2022/08/11 00:05:19;;;;;;;0.00;0.00;;;;;;;;;;5074265;28;20195;-73
2022/08/11 00:07:49;;;;;;;0.00;0.00;;;;;;;;;;5097056;28;20204;-72
2022/08/11 00:10:17;;;;;;;0.00;0.00;;;;;;;;;;5073852;28;20234;-73
2022/08/11 00:12:51;;;;;;;0.00;0.00;;;;;;;;;;5096830;28;20433;-73
2022/08/11 00:15:18;;;;;;;0.00;0.00;;;;;;;;;;5074449;28;20223;-72
2022/08/11 00:17:45;;;;;;;0.00;0.00;;;;;;;;;;5096501;28;20221;-73
2022/08/11 00:20:12;;;;;;;0.00;0.00;;;;;;;;;;5073228;28;20227;-72
2022/08/11 00:22:41;;;;;;;0.00;0.00;;;;;;;;;;5097814;28;20196;-72
2022/08/11 00:25:09;;;;;;;0.00;0.00;;;;;;;;;;5073131;28;20210;-72
2022/08/11 00:27:36;;;;;;;0.00;0.00;;;;;;;;;;5097745;28;20203;-72
2022/08/11 00:30:04;;;;;;;0.00;0.00;;;;;;;;;;5082705;28;20202;-72
2022/08/11 00:32:31;;;;;;;0.00;0.00;;;;;;;;;;5071047;28;20219;-72
2022/08/11 00:34:58;;;;;;;0.00;0.00;;;;;;;;;;5082549;28;20213;-72
2022/08/11 00:37:25;;;;;;;0.00;0.00;;;;;;;;;;5087368;28;20479;-72
2022/08/11 00:39:53;;;;;;;0.10;0.10;;;;;;;;;;5082334;28;20231;-73
2022/08/11 00:42:25;;;;;;;0.00;0.00;;;;;;;;;;5088162;28;20325;-72
2022/08/11 00:44:58;;;;;;;0.00;0.00;;;;;;;;;;5082490;28;20258;-72
2022/08/11 00:47:33;;;;;;;0.00;0.00;;;;;;;;;;5088184;28;20231;-73
2022/08/11 00:50:02;;;;;;;0.00;0.00;;;;;;;;;;5082258;28;20198;-76
2022/08/11 00:52:43;;;;;;;0.00;0.00;;;;;;;;;;5087961;28;20250;-75
2022/08/11 00:55:32;;;;;;;0.00;0.00;;;;;;;;;;5039356;28;20553;-75
2022/08/11 00:58:17;;;;;;;0.00;0.00;;;;;;;;;;5094189;28;20187;-75
2022/08/11 01:00:58;;;;;;;0.00;0.00;;;;;;;;;;5077054;28;20253;-75
2022/08/11 01:03:32;;;;;;;0.10;0.10;;;;;;;;;;5091161;28;20213;-75
2022/08/11 01:06:22;;;;;;;0.00;0.00;;;;;;;;;;5079300;28;20240;-75
2022/08/11 01:09:08;;;;;;;0.05;0.05;;;;;;;;;;5025927;28;20208;-75
2022/08/11 01:11:46;;;;;;;0.00;0.00;;;;;;;;;;5083939;28;20309;-76
2022/08/11 01:14:44;;;;;;;0.00;0.00;;;;;;;;;;5084783;28;20196;-75
2022/08/11 01:17:28;;;;;;;0.00;0.00;;;;;;;;;;5087348;28;20236;-75
2022/08/11 01:20:10;;;;;;;0.00;0.00;;;;;;;;;;5082376;28;20290;-75
2022/08/11 01:22:55;;;;;;;0.00;0.00;;;;;;;;;;5070639;28;20223;-75
2022/08/11 01:25:38;;;;;;;0.00;0.00;;;;;;;;;;5073631;28;20269;-76
2022/08/11 01:28:20;;;;;;;0.10;0.10;;;;;;;;;;5093516;28;20193;-75
2022/08/11 01:31:11;;;;;;;0.00;0.00;;;;;;;;;;5077198;28;20238;-74
2022/08/11 01:33:58;;;;;;;0.00;0.00;;;;;;;;;;5088789;28;20206;-76
2022/08/11 01:36:51;;;;;;;0.10;0.10;;;;;;;;;;5081881;28;20240;-75
2022/08/11 01:39:30;;;;;;;0.00;0.00;;;;;;;;;;5084251;28;20500;-75
2022/08/11 01:45:03;;;;;;;0.00;0.00;;;;;;;;;;5081966;28;20516;-75
2022/08/11 01:47:52;;;;;;;0.00;0.00;;;;;;;;;;5070501;28;20202;-75
2022/08/11 01:50:23;;;;;;;0.00;0.00;;;;;;;;;;5077051;28;20271;-76
2022/08/11 01:53:08;;;;;;;0.00;0.00;;;;;;;;;;5098766;28;20267;-75
2022/08/11 01:55:40;;;;;;;0.00;0.00;;;;;;;;;;5079356;28;20242;-74
2022/08/11 01:58:10;;;;;;;0.00;0.00;;;;;;;;;;5097018;28;20262;-75
2022/08/11 02:00:53;;;;;;;0.00;0.00;;;;;;;;;;5079271;28;20239;-76
2022/08/11 02:03:24;;;;;;;0.00;0.00;;;;;;;;;;5094725;28;20396;-73
2022/08/11 02:05:59;;;;;;;0.00;0.00;;;;;;;;;;5081135;28;20265;-73
2022/08/11 02:08:33;;;;;;;0.00;0.00;;;;;;;;;;5093449;28;20202;-73
2022/08/11 02:13:53;;;;;;;0.00;0.00;;;;;;;;;;5084971;28;20256;-73
2022/08/11 02:16:22;;;;;;;0.00;0.00;;;;;;;;;;5084708;28;20238;-73
2022/08/11 02:24:28;;;;;;;0.00;0.00;;;;;;;;;;5085982;28;20198;-74
2022/08/11 02:27:01;;;;;;;0.00;0.00;;;;;;;;;;5089310;28;20233;-73
2022/08/11 02:29:33;;;;;;;0.00;0.00;;;;;;;;;;5085602;28;20242;-72
2022/08/11 02:34:55;;;;;;;0.00;0.00;;;;;;;;;;5084740;28;20190;-73
2022/08/11 02:37:24;;;;;;;0.00;0.00;;;;;;;;;;5090246;28;20334;-74
2022/08/11 02:40:00;;;;;;;0.03;0.03;;;;;;;;;;5084748;28;20486;-72
2022/08/11 02:42:31;;;;;;;0.00;0.00;;;;;;;;;;5090468;28;20420;-73
2022/08/11 02:45:06;;;;;;;0.00;0.00;;;;;;;;;;5084850;28;20192;-73
2022/08/11 02:47:37;;;;;;;0.00;0.00;;;;;;;;;;5073203;28;20209;-73
2022/08/11 02:50:04;;;;;;;0.00;0.00;;;;;;;;;;5084544;28;20267;-73
2022/08/11 02:52:35;;;;;;;0.00;0.00;;;;;;;;;;5073114;28;20211;-73
2022/08/11 02:55:17;;;;;;;0.00;0.00;;;;;;;;;;5084560;28;20262;-74
2022/08/11 02:57:49;;;;;;;0.00;0.00;;;;;;;;;;5084475;28;20217;-73
2022/08/11 03:00:17;;;;;;;0.10;0.10;;;;;;;;;;5074943;28;20195;-73
2022/08/11 03:02:50;;;;;;;0.00;0.00;;;;;;;;;;5098382;28;20232;-73
2022/08/11 03:05:31;;;;;;;0.00;0.00;;;;;;;;;;5075452;28;20198;-73
2022/08/11 03:08:17;;;;;;;0.00;0.00;;;;;;;;;;5096396;28;20202;-73
2022/08/11 03:16:43;;;;;;;0.00;0.00;;;;;;;;;;5079019;28;20246;-73
2022/08/11 03:16:47;;;;;;;0.00;0.00;;;;;;;;;;5084354;28;20309;-73
2022/08/11 03:19:27;;;;;;;0.00;0.00;;;;;;;;;;5086349;28;20454;-72
2022/08/11 03:22:02;;;;;;;0.00;0.00;;;;;;;;;;5088080;28;20309;-73
2022/08/11 03:24:31;;;;;;;0.00;0.00;;;;;;;;;;5084100;28;20296;-74
2022/08/11 03:27:19;;;;;;;0.00;0.00;;;;;;;;;;5088385;28;20235;-74
2022/08/11 03:29:53;;;;;;;0.00;0.00;;;;;;;;;;5083557;28;20276;-74
2022/08/11 03:32:25;;;;;;;0.05;0.05;;;;;;;;;;5089077;28;20308;-74
2022/08/11 03:34:53;;;;;;;0.00;0.00;;;;;;;;;;5083974;28;20221;-74
2022/08/11 03:40:15;;;;;;;0.05;0.05;;;;;;;;;;5073912;28;20261;-74
2022/08/11 03:42:45;;;;;;;0.00;0.00;;;;;;;;;;5097589;28;20578;-73
2022/08/11 03:45:20;;;;;;;0.00;0.00;;;;;;;;;;5074014;28;20226;-74
2022/08/11 03:47:52;;;;;;;0.00;0.00;;;;;;;;;;5097049;28;20291;-73
2022/08/11 03:50:24;;;;;;;0.00;0.00;;;;;;;;;;5074923;28;20265;-75
2022/08/11 03:52:58;;;;;;;0.00;0.00;;;;;;;;;;5096401;28;20216;-74
2022/08/11 03:55:31;;;;;;;0.00;0.00;;;;;;;;;;5075455;28;20448;-73
2022/08/11 03:58:21;;;;;;;0.00;0.00;;;;;;;;;;5096048;28;20226;-72
2022/08/11 04:01:14;;;;;;;0.00;0.00;;;;;;;;;;5078220;28;20300;-72
2022/08/11 04:03:53;;;;;;;0.00;0.00;;;;;;;;;;5089945;28;20223;-73
2022/08/11 04:06:48;;;;;;;0.00;0.00;;;;;;;;;;5080922;28;20390;-73
2022/08/11 04:09:45;;;;;;;0.10;0.10;;;;;;;;;;5086740;28;20192;-73
2022/08/11 04:12:26;;;;;;;0.00;0.00;;;;;;;;;;5088850;28;20264;-76
2022/08/11 04:17:56;;;;;;;0.00;0.00;;;;;;;;;;5083088;28;20221;-74
2022/08/11 04:20:29;;;;;;;0.00;0.00;;;;;;;;;;5075176;28;20271;-76
2022/08/11 04:23:07;;;;;;;0.00;0.00;;;;;;;;;;5095570;28;20205;-75
2022/08/11 04:25:43;;;;;;;0.03;0.03;;;;;;;;;;5076320;28;20240;-75
2022/08/11 04:28:28;;;;;;;0.00;0.00;;;;;;;;;;5093777;28;20216;-74
2022/08/11 04:31:02;;;;;;;0.00;0.00;;;;;;;;;;5078823;28;20237;-75
2022/08/11 04:33:47;;;;;;;0.00;0.00;;;;;;;;;;5090425;28;20273;-76
2022/08/11 04:37:31;;;;;;;0.00;0.00;;;;;;;;;;5081101;28;20241;-75
2022/08/11 04:39:19;;;;;;;0.10;0.10;;;;;;;;;;5084887;28;20195;-75
2022/08/11 04:45:20;;;;;;;0.00;0.00;;;;;;;;;;5082549;28;20225;-76
2022/08/11 05:02:26;;;;;;;0.10;0.10;;;;;;;;;;5087864;28;20247;-75
2022/08/11 05:08:12;;;;;;;0.00;0.00;;;;;;;;;;5082330;28;20510;-76
2022/08/11 05:10:54;;;;;;;0.00;0.00;;;;;;;;;;5076180;28;20272;-72
2022/08/11 05:35:31;;;;;;;0.00;0.00;;;;;;;;;;5078578;28;20298;-71
2022/08/11 05:57:20;;;;;;;0.00;0.00;;;;;;;;;;5091668;28;20273;-71
2022/08/11 05:59:48;;;;;;;0.00;0.00;;;;;;;;;;5085742;28;20269;-73
2022/08/11 06:02:17;;;;;;;0.00;0.00;;;;;;;;;;5090942;28;20304;-73
2022/08/11 06:04:44;;;;;;;0.00;0.00;;;;;;;;;;5085688;28;20398;-71
2022/08/11 06:07:11;;;;;;;0.00;0.00;;;;;;;;;;5091322;28;20508;-73
2022/08/11 06:09:38;;;;;;;0.05;0.05;;;;;;;;;;5085432;28;20358;-72
2022/08/11 06:12:07;;;;;;;0.00;0.00;;;;;;;;;;5090643;28;20433;-71
2022/08/11 06:14:34;;;;;;;0.00;0.00;;;;;;;;;;5085260;28;20206;-72
2022/08/11 06:17:04;;;;;;;0.00;0.00;;;;;;;;;;5090225;28;20308;-73
2022/08/11 06:19:32;;;;;;;0.10;0.10;;;;;;;;;;5085617;28;20409;-72
2022/08/11 06:21:59;;;;;;;0.05;0.05;;;;;;;;;;5089895;28;20308;-69
2022/08/11 06:24:28;;;;;;;0.00;0.00;;;;;;;;;;5085789;28;20459;-69
2022/08/11 06:26:55;;;;;;;0.00;0.00;;;;;;;;;;5089314;28;20265;-69
2022/08/11 06:29:22;;;;;;;0.00;0.00;;;;;;;;;;5086480;28;20238;-69
2022/08/11 06:31:53;;;;;;;0.00;0.00;;;;;;;;;;5087583;28;20238;-70
2022/08/11 06:34:28;;;;;;;0.00;0.00;;;;;;;;;;5087713;28;20202;-70
2022/08/11 06:36:57;;;;;;;0.00;0.00;;;;;;;;;;5088410;28;20299;-69
2022/08/11 06:39:32;;;;;;;0.05;0.05;;;;;;;;;;5086289;28;20454;-70
2022/08/11 06:42:02;;;;;;;0.00;0.00;;;;;;;;;;5089775;28;20238;-69
2022/08/11 06:44:31;;;;;;;0.00;0.00;;;;;;;;;;5085332;28;20218;-69
2022/08/11 06:47:04;;;;;;;0.00;0.00;;;;;;;;;;5089161;28;20553;-70
2022/08/11 06:52:28;;;;;;;0.00;0.00;;;;;;;;;;5090360;28;20531;-70
2022/08/11 06:55:04;;;;;;;0.00;0.00;;;;;;;;;;5084756;28;20338;-71
2022/08/11 07:00:29;;;;;;;0.00;0.00;;;;;;;;;;5075599;28;20231;-69
2022/08/11 07:02:59;;;;;;;0.00;0.00;;;;;;;;;;5096996;28;20455;-71
2022/08/11 07:05:29;;;;;;;0.10;0.10;;;;;;;;;;5077238;28;20253;-71
2022/08/11 07:16:28;;;;;;;0.10;0.10;;;;;;;;;;5084717;28;20583;-70
2022/08/11 07:29:58;;;;;;;0.00;0.00;;;;;;;;;;5083790;28;20334;-70
2022/08/11 07:32:27;;;;;;;0.10;0.10;;;;;;;;;;5089329;28;20246;-71
2022/08/11 07:34:56;;;;;;;0.00;0.00;;;;;;;;;;5083858;28;20203;-70
2022/08/11 07:37:25;;;;;;;0.00;0.00;;;;;;;;;;5089531;28;20238;-70
2022/08/11 07:39:53;;;;;;;0.00;0.00;;;;;;;;;;5084371;28;20249;-68
2022/08/11 07:42:21;;;;;;;0.00;0.00;;;;;;;;;;5089578;28;20268;-68
2022/08/11 07:53:03;;;;;;;0.10;0.10;;;;;;;;;;5095355;28;20222;-69
2022/08/11 07:55:30;;;;;;;0.00;0.00;;;;;;;;;;5076764;28;20235;-68
2022/08/11 08:19:56;;;;;;;0.00;0.00;;;;;;;;;;5082981;28;20573;-70
2022/08/11 08:22:23;;;;;;;0.00;0.00;;;;;;;;;;5088271;28;20558;-68
2022/08/11 08:24:51;;;;;;;0.00;0.00;;;;;;;;;;5082919;28;20271;-69
2022/08/11 08:27:18;;;;;;;0.00;0.00;;;;;;;;;;5088606;28;20245;-68
2022/08/11 08:32:30;;;;;;;0.00;0.00;;;;;;;;;;5088336;28;20241;-69
2022/08/11 08:34:57;;;;;;;0.00;0.00;;;;;;;;;;5083178;28;20207;-69
2022/08/11 08:37:25;;;;;;;0.00;0.00;;;;;;;;;;5088377;28;20268;-70
2022/08/11 08:39:53;;;;;;;0.00;0.00;;;;;;;;;;5082886;28;20249;-68
2022/08/11 08:42:23;;;;;;;0.00;0.00;;;;;;;;;;5088617;28;20254;-69
2022/08/11 08:44:51;;;;;;;0.00;0.00;;;;;;;;;;5082695;28;20242;-69
2022/08/11 08:47:18;;;;;;;0.00;0.00;;;;;;;;;;5087921;28;20262;-68
2022/08/11 08:49:48;;;;;;;0.00;0.00;;;;;;;;;;5082750;28;20270;-68
2022/08/11 08:52:15;;;;;;;0.00;0.00;;;;;;;;;;5088189;28;20246;-69
2022/08/11 08:54:42;;;;;;;0.00;0.00;;;;;;;;;;5082911;28;20203;-70
2022/08/11 08:57:12;;;;;;;0.00;0.00;;;;;;;;;;5088464;28;20367;-70
2022/08/11 08:59:40;;;;;;;0.00;0.00;;;;;;;;;;5082045;28;20376;-69
2022/08/11 09:02:11;;;;;;;0.00;0.00;;;;;;;;;;5088148;28;20261;-69
2022/08/11 09:04:38;;;;;;;0.00;0.00;;;;;;;;;;5082508;28;20191;-69
2022/08/11 09:07:07;;;;;;;0.00;0.00;;;;;;;;;;5088086;28;20267;-69
2022/08/11 09:09:34;;;;;;;0.00;0.00;;;;;;;;;;5082641;28;20446;-68
2022/08/11 09:12:00;;;;;;;0.00;0.00;;;;;;;;;;5087452;28;20305;-70
2022/08/11 09:17:13;;;;;;;0.00;0.00;;;;;;;;;;5087815;28;20252;-69
2022/08/11 09:19:40;;;;;;;0.00;0.00;;;;;;;;;;5082400;28;20257;-70
2022/08/11 09:27:37;;;;;;;0.00;0.00;;;;;;;;;;5087623;28;20253;-68
2022/08/11 09:30:06;;;;;;;0.00;0.00;;;;;;;;;;5082326;28;20208;-69
2022/08/11 09:32:33;;;;;;;0.00;0.00;;;;;;;;;;5070405;28;20439;-70
2022/08/11 09:35:01;;;;;;;0.10;0.10;;;;;;;;;;5082154;28;20204;-68
2022/08/11 09:40:32;;;;;;;0.00;0.00;;;;;;;;;;5072761;28;20195;-70
2022/08/11 09:45:45;;;;;;;0.00;0.00;;;;;;;;;;5053853;28;20244;-69
2022/08/11 09:48:11;;;;;;;0.00;0.00;;;;;;;;;;5092210;28;20217;-70
2022/08/11 09:50:39;;;;;;;0.00;0.00;;;;;;;;;;5076037;28;20239;-69
2022/08/11 09:53:05;;;;;;;0.00;0.00;;;;;;;;;;5093033;28;20222;-70
2022/08/11 09:55:32;;;;;;;0.00;0.00;;;;;;;;;;5075280;28;20302;-69
2022/08/11 09:58:16;;;;;;;0.00;0.00;;;;;;;;;;5093702;28;20224;-69
2022/08/11 10:00:45;;;;;;;0.00;0.00;;;;;;;;;;5076682;28;20414;-69
2022/08/11 10:03:13;;;;;;;0.00;0.00;;;;;;;;;;5092495;28;20546;-69
2022/08/11 10:08:26;;;;;;;0.00;0.00;;;;;;;;;;5090476;28;20198;-70
2022/08/11 10:10:54;;;;;;;0.00;0.00;;;;;;;;;;5080340;28;20246;-70
2022/08/11 10:13:25;;;;;;;0.00;0.00;;;;;;;;;;5094414;28;20195;-69
2022/08/11 10:15:53;;;;;;;0.00;0.00;;;;;;;;;;5081174;28;20309;-69
2022/08/11 10:18:48;;;;;;;0.00;0.00;;;;;;;;;;5094824;28;20542;-69
2022/08/11 10:21:16;;;;;;;0.00;0.00;;;;;;;;;;5084105;28;20242;-70
2022/08/11 10:26:53;;;;;;;0.00;0.00;;;;;;;;;;5018478;28;20346;-69
2022/08/11 10:34:52;;;;;;;0.00;0.00;;;;;;;;;;5085040;28;20258;-69
2022/08/11 10:37:20;;;;;;;0.00;0.00;;;;;;;;;;5090510;28;20239;-69
2022/08/11 10:39:46;;;;;;;0.00;0.00;;;;;;;;;;5085091;28;20510;-68
2022/08/11 10:45:00;;;;;;;0.00;0.00;;;;;;;;;;5084905;28;20447;-69
2022/08/11 10:47:38;;;;;;;0.00;0.00;;;;;;;;;;5090463;28;20239;-68
2022/08/11 11:01:07;;;;;;;0.00;0.00;;;;;;;;;;5082269;28;20335;-69
2022/08/11 11:03:36;;;;;;;0.00;0.00;;;;;;;;;;5092204;28;20270;-68
2022/08/11 11:06:06;;;;;;;0.00;0.00;;;;;;;;;;5081668;28;20238;-69
2022/08/11 11:11:18;;;;;;;0.00;0.00;;;;;;;;;;5083876;28;20387;-69
2022/08/11 11:19:18;;;;;;;0.00;0.00;;;;;;;;;;5086200;28;20218;-69
2022/08/11 11:21:45;;;;;;;0.00;0.00;;;;;;;;;;5086075;28;20281;-68
2022/08/11 11:24:16;;;;;;;0.00;0.00;;;;;;;;;;5086533;28;20270;-69
2022/08/11 11:26:49;;;;;;;0.00;0.00;;;;;;;;;;5086542;28;20254;-68
2022/08/11 11:29:43;;;;;;;0.00;0.00;;;;;;;;;;5086159;28;20260;-69
2022/08/11 11:32:13;;;;;;;0.00;0.00;;;;;;;;;;5029163;28;20239;-70
2022/08/11 11:34:51;;;;;;;0.00;0.00;;;;;;;;;;5084033;28;20246;-70
2022/08/11 11:37:17;;;;;;;0.00;0.00;;;;;;;;;;5089516;28;20423;-70
2022/08/11 11:39:45;;;;;;;0.00;0.00;;;;;;;;;;5084314;28;20233;-71
2022/08/11 11:42:11;;;;;;;0.00;0.00;;;;;;;;;;5089180;28;20292;-69
2022/08/11 11:44:38;;;;;;;0.00;0.00;;;;;;;;;;5083938;28;20396;-70
2022/08/11 11:47:05;;;;;;;0.00;0.00;;;;;;;;;;5089254;28;20238;-70
2022/08/11 11:49:34;;;;;;;0.00;0.00;;;;;;;;;;5083856;28;20423;-70
2022/08/11 11:52:01;;;;;;;0.00;0.00;;;;;;;;;;5088727;28;20440;-69
2022/08/11 11:54:29;;;;;;;0.00;0.00;;;;;;;;;;5084095;28;20365;-68
2022/08/11 11:56:57;;;;;;;0.00;0.00;;;;;;;;;;5087921;28;20253;-68
2022/08/11 12:02:09;;;;;;;0.00;0.00;;;;;;;;;;5088795;28;20507;-68
2022/08/11 12:04:36;;;;;;;0.00;0.00;;;;;;;;;;5083445;28;20204;-69
2022/08/11 12:09:46;;;;;;;0.00;0.00;;;;;;;;;;5071334;28;20459;-68
2022/08/11 12:14:57;;;;;;;0.00;0.00;;;;;;;;;;5083256;28;20352;-70
2022/08/11 12:17:23;;;;;;;0.00;0.00;;;;;;;;;;5088708;28;20310;-69
2022/08/11 12:19:50;;;;;;;0.00;0.00;;;;;;;;;;5083116;28;20262;-69
2022/08/11 12:27:49;;;;;;;0.00;0.00;;;;;;;;;;5083050;28;20198;-69
2022/08/11 12:30:15;;;;;;;0.00;0.00;;;;;;;;;;5074412;28;20200;-69
2022/08/11 12:32:42;;;;;;;0.00;0.00;;;;;;;;;;5096876;28;20218;-69
2022/08/11 12:35:10;;;;;;;0.00;0.00;;;;;;;;;;5073002;28;20231;-69
2022/08/11 12:37:40;;;;;;;0.00;0.00;;;;;;;;;;5097573;28;20200;-69
2022/08/11 12:45:39;;;;;;;0.00;0.00;;;;;;;;;;5076772;28;20257;-73
2022/08/11 12:53:43;;;;;;;0.00;0.00;;;;;;;;;;5089453;28;20522;-67
2022/08/11 13:07:07;;;;;;;0.00;0.00;;;;;;;;;;5088253;28;20273;-68
2022/08/11 13:09:35;;;;;;;0.00;0.00;;;;;;;;;;5082899;28;20203;-68
2022/08/11 13:14:45;;;;;;;0.00;0.00;;;;;;;;;;5082601;28;20497;-68
2022/08/11 13:17:21;;;;;;;0.00;0.00;;;;;;;;;;5087984;28;20305;-68
2022/08/11 13:19:48;;;;;;;0.00;0.00;;;;;;;;;;5082382;28;20227;-68
2022/08/11 13:22:16;;;;;;;0.00;0.00;;;;;;;;;;5087912;28;20239;-68
2022/08/11 13:24:44;;;;;;;0.00;0.00;;;;;;;;;;5082042;28;20223;-69
2022/08/11 13:27:11;;;;;;;0.00;0.00;;;;;;;;;;5087886;28;20464;-68
2022/08/11 13:29:39;;;;;;;0.00;0.00;;;;;;;;;;5082522;28;20206;-69
2022/08/11 13:32:06;;;;;;;0.00;0.00;;;;;;;;;;5087456;28;20239;-69
2022/08/11 13:34:34;;;;;;;0.00;0.00;;;;;;;;;;5082399;28;20274;-68
2022/08/11 13:37:01;;;;;;;0.00;0.00;;;;;;;;;;5087140;28;20242;-68
2022/08/11 13:39:29;;;;;;;0.00;0.00;;;;;;;;;;5082246;28;20386;-69
2022/08/11 13:41:58;;;;;;;0.00;0.00;;;;;;;;;;5086101;28;20252;-68
2022/08/11 13:44:26;;;;;;;0.00;0.00;;;;;;;;;;5083024;28;20271;-69
2022/08/11 13:46:54;;;;;;;0.00;0.00;;;;;;;;;;5089719;28;20239;-69
2022/08/11 13:49:20;;;;;;;0.00;0.00;;;;;;;;;;5087156;28;20207;-68
2022/08/11 13:51:47;;;;;;;0.00;0.00;;;;;;;;;;5089215;28;20305;-68
2022/08/11 13:54:17;;;;;;;0.00;0.00;;;;;;;;;;5088250;28;20223;-68
2022/08/11 13:56:45;;;;;;;0.00;0.00;;;;;;;;;;5088703;28;20310;-69
2022/08/11 13:59:14;;;;;;;0.00;0.00;;;;;;;;;;5088445;28;20508;-69
2022/08/11 14:01:41;;;;;;;0.00;0.00;;;;;;;;;;5088237;28;20310;-69
2022/08/11 14:04:10;;;;;;;0.00;0.00;;;;;;;;;;5088545;28;20204;-70
2022/08/11 14:06:40;;;;;;;0.00;0.00;;;;;;;;;;5087563;28;20541;-69
2022/08/11 14:09:08;;;;;;;0.00;0.00;;;;;;;;;;5088874;28;20188;-69
2022/08/11 14:14:22;;;;;;;0.00;0.00;;;;;;;;;;5087227;28;20187;-70
2022/08/11 14:16:49;;;;;;;0.00;0.00;;;;;;;;;;5088578;28;20261;-69
2022/08/11 14:19:17;;;;;;;0.00;0.00;;;;;;;;;;5087379;28;20254;-69
2022/08/11 14:24:29;;;;;;;0.00;0.00;;;;;;;;;;5086360;28;20186;-68
2022/08/11 14:26:56;;;;;;;0.00;0.00;;;;;;;;;;5089740;28;20238;-68
2022/08/11 14:29:26;;;;;;;0.00;0.00;;;;;;;;;;5086398;28;20266;-68
2022/08/11 14:31:54;;;;;;;0.00;0.00;;;;;;;;;;5089134;28;20238;-69
2022/08/11 14:34:21;;;;;;;0.00;0.00;;;;;;;;;;5086460;28;20204;-68
2022/08/11 14:36:50;;;;;;;0.00;0.00;;;;;;;;;;5088461;28;20249;-68
2022/08/11 14:39:18;;;;;;;0.00;0.00;;;;;;;;;;5086768;28;20243;-67
2022/08/11 14:47:26;;;;;;;0.00;0.00;;;;;;;;;;5090296;28;20281;-69
2022/08/11 14:49:55;;;;;;;0.00;0.00;;;;;;;;;;5085039;28;20223;-69
2022/08/11 14:52:21;;;;;;;0.00;0.00;;;;;;;;;;5090385;28;20254;-68
2022/08/11 14:57:45;;;;;;;0.00;0.00;;;;;;;;;;5001871;28;20202;-68
2022/08/11 15:00:16;;;;;;;0.00;0.00;;;;;;;;;;5055164;28;20353;-69
2022/08/11 15:05:27;;;;;;;0.00;0.00;;;;;;;;;;5077239;28;20256;-68
2022/08/11 15:07:55;;;;;;;0.00;0.00;;;;;;;;;;5097023;28;20267;-69
2022/08/11 15:10:22;;;;;;;0.00;0.00;;;;;;;;;;5076200;28;20449;-69
2022/08/11 15:12:48;;;;;;;0.00;0.00;;;;;;;;;;5098244;28;20210;-72
2022/08/11 15:18:03;;;;;;;0.00;0.00;;;;;;;;;;5096140;28;20255;-68
2022/08/11 15:25:59;;;;;;;0.00;0.00;;;;;;;;;;5080998;28;20309;-69
2022/08/11 15:39:32;;;;;;;0.00;0.00;;;;;;;;;;5083672;28;20222;-71
2022/08/11 15:47:36;;;;;;;0.00;0.00;;;;;;;;;;5088607;28;20222;-71
2022/08/11 15:50:04;;;;;;;0.00;0.00;;;;;;;;;;5083784;28;20480;-73
2022/08/11 15:52:32;;;;;;;0.00;0.00;;;;;;;;;;5071486;28;20219;-72
2022/08/11 15:55:01;;;;;;;0.00;0.00;;;;;;;;;;5083156;28;20267;-71
2022/08/11 16:05:44;;;;;;;0.00;0.00;;;;;;;;;;5078429;28;20249;-70
2022/08/11 16:08:11;;;;;;;0.00;0.00;;;;;;;;;;5093572;28;20198;-72
2022/08/11 16:10:38;;;;;;;0.00;0.00;;;;;;;;;;5077578;28;20305;-70
2022/08/11 16:18:41;;;;;;;0.00;0.00;;;;;;;;;;5092045;28;20201;-71
2022/08/11 16:21:09;;;;;;;0.00;0.00;;;;;;;;;;5081868;28;20257;-70
2022/08/11 16:23:37;;;;;;;0.00;0.00;;;;;;;;;;5091936;28;20369;-70
2022/08/11 16:26:05;;;;;;;0.00;0.00;;;;;;;;;;5080579;28;20256;-69
2022/08/11 16:28:33;;;;;;;0.00;0.00;;;;;;;;;;5090805;28;20292;-70
2022/08/11 16:31:01;;;;;;;0.00;0.00;;;;;;;;;;5079553;28;20254;-70
2022/08/11 16:33:27;;;;;;;0.00;0.00;;;;;;;;;;5091258;28;20210;-71
2022/08/11 16:38:40;;;;;;;0.00;0.00;;;;;;;;;;5089826;28;20275;-70
2022/08/11 16:41:08;;;;;;;0.00;0.00;;;;;;;;;;5080341;28;20237;-70
2022/08/11 16:49:10;;;;;;;0.00;0.00;;;;;;;;;;5086029;28;20318;-71
2022/08/11 16:51:38;;;;;;;0.00;0.00;;;;;;;;;;5084411;28;20297;-70
2022/08/11 16:54:05;;;;;;;0.00;0.00;;;;;;;;;;5086235;28;20238;-70
2022/08/11 16:56:34;;;;;;;0.00;0.00;;;;;;;;;;5083614;28;20553;-70
2022/08/11 16:59:15;;;;;;;0.00;0.00;;;;;;;;;;5086769;28;20231;-71
2022/08/11 17:01:42;;;;;;;0.00;0.00;;;;;;;;;;5084792;28;20249;-70
2022/08/11 17:17:56;;;;;;;0.00;0.00;;;;;;;;;;5093765;28;20237;-70
2022/08/11 17:20:23;;;;;;;0.00;0.00;;;;;;;;;;5073842;28;20298;-68
2022/08/11 17:25:36;;;;;;;0.00;0.00;;;;;;;;;;5076350;28;20591;-69
2022/08/11 17:28:03;;;;;;;0.00;0.00;;;;;;;;;;5094422;28;20203;-69
2022/08/11 17:35:55;;;;;;;0.00;0.00;;;;;;;;;;5078596;28;20359;-69
2022/08/11 17:38:24;;;;;;;0.00;0.00;;;;;;;;;;5090961;28;20214;-68
2022/08/11 17:49:19;;;;;;;0.00;0.00;;;;;;;;;;5084358;28;20202;-71
2022/08/11 18:00:00;;;;;;;0.00;0.00;;;;;;;;;;5081951;28;20413;-69
2022/08/11 18:05:12;;;;;;;0.00;0.00;;;;;;;;;;5051251;28;20218;-69
